Terminal Aerodrome Forecast
Issued by NWS

Home | Current Version | Previous Version | Text Only | Print | Product List | Glossary On
Versions: 1 2 3 4 5 6 7 8 9 10 11 12 13 14 15 16 17
000
FTUS44 KCRP 220500
TAFALI
TAF
KALI 220531Z 2206/2306 17005KT P6SM OVC006
     FM220800 19004KT 4SM BR OVC004
     FM221000 VRB03KT 1SM BR OVC002
      TEMPO 2210/2214 1/2SM FG VV001
     FM221500 20006KT 2SM BR BKN008
     FM221600 21009KT P6SM SCT015
     FM221800 23011KT P6SM SKC
     FM230100 18005KT P6SM BKN250=

USA.gov is the U.S. government's official web portal to all federal, state and local government web resources and services.